Time;durP1;ratioP1;P1;durP2;ratioP2;P2;SDS_P1;SDS_P2;PMS_P1;PMS_P2;Temp;Humidity;BMP_temperature;BMP_pressure;BME280_temperature;BME280_humidity;BME280_pressure;Samples;Min_cycle;Max_cycle;Signal;HPM_P1;HPM_P2
2022/10/22 00:00:15;;;;;;;13.73;8.13;;;;;;;;;;5044684;28;20033;-74
2022/10/22 00:02:41;;;;;;;13.98;8.45;;;;;;;;;;5042879;28;20025;-74
2022/10/22 00:05:08;;;;;;;16.17;8.65;;;;;;;;;;5044818;28;20083;-74
2022/10/22 00:07:34;;;;;;;15.70;8.60;;;;;;;;;;5045037;28;20108;-74
2022/10/22 00:10:00;;;;;;;17.63;8.85;;;;;;;;;;5042776;28;20078;-74
2022/10/22 00:12:26;;;;;;;15.48;8.60;;;;;;;;;;5043732;28;20065;-74
2022/10/22 00:14:53;;;;;;;18.95;8.52;;;;;;;;;;5044018;28;20053;-74
2022/10/22 00:17:19;;;;;;;15.18;8.50;;;;;;;;;;5045927;28;20063;-74
2022/10/22 00:19:45;;;;;;;12.90;8.73;;;;;;;;;;5044550;28;20041;-74
2022/10/22 00:22:11;;;;;;;14.07;8.18;;;;;;;;;;5043443;28;20430;-74
2022/10/22 00:24:38;;;;;;;15.18;8.13;;;;;;;;;;5047707;28;20025;-74
2022/10/22 00:27:05;;;;;;;17.83;7.90;;;;;;;;;;5046114;28;20065;-74
2022/10/22 00:29:31;;;;;;;12.82;7.78;;;;;;;;;;5046681;28;20067;-74
2022/10/22 00:31:57;;;;;;;20.63;8.90;;;;;;;;;;5047528;28;20300;-74
2022/10/22 00:34:23;;;;;;;14.73;7.55;;;;;;;;;;5047470;28;20029;-74
2022/10/22 00:36:50;;;;;;;16.98;7.75;;;;;;;;;;5049367;28;20057;-74
2022/10/22 00:39:18;;;;;;;16.77;7.82;;;;;;;;;;5046360;28;20454;-74
2022/10/22 00:41:45;;;;;;;14.77;8.38;;;;;;;;;;5046912;28;20056;-74
2022/10/22 00:44:29;;;;;;;15.50;8.02;;;;;;;;;;5046607;28;20407;-74
2022/10/22 00:46:55;;;;;;;13.02;8.02;;;;;;;;;;5046444;28;20029;-74
2022/10/22 00:49:21;;;;;;;13.68;7.90;;;;;;;;;;5045700;28;20032;-74
2022/10/22 00:51:47;;;;;;;14.57;8.15;;;;;;;;;;5043832;28;20028;-74
2022/10/22 00:54:13;;;;;;;17.17;8.70;;;;;;;;;;5046220;28;20044;-74
2022/10/22 00:56:39;;;;;;;13.85;8.15;;;;;;;;;;5048125;28;20112;-74
2022/10/22 00:59:05;;;;;;;18.77;8.00;;;;;;;;;;5045611;28;20800;-74
2022/10/22 01:01:32;;;;;;;14.90;8.05;;;;;;;;;;5046738;28;20044;-74
2022/10/22 01:03:58;;;;;;;15.75;8.80;;;;;;;;;;5048471;28;20036;-74
2022/10/22 01:06:26;;;;;;;17.50;8.77;;;;;;;;;;5044833;28;20029;-74
2022/10/22 01:09:04;;;;;;;16.13;8.18;;;;;;;;;;5045960;28;20087;-74
2022/10/22 01:11:30;;;;;;;15.93;9.73;;;;;;;;;;5045721;28;20021;-74
2022/10/22 01:14:01;;;;;;;18.02;9.75;;;;;;;;;;5046627;28;20021;-74
2022/10/22 01:16:30;;;;;;;22.95;10.65;;;;;;;;;;5049949;28;20347;-74
2022/10/22 01:18:59;;;;;;;18.25;9.02;;;;;;;;;;5048640;28;20033;-74
2022/10/22 01:21:38;;;;;;;15.65;8.23;;;;;;;;;;5046265;28;20035;-74
2022/10/22 01:24:27;;;;;;;14.35;8.75;;;;;;;;;;5046893;28;20028;-74
2022/10/22 01:26:59;;;;;;;15.18;8.32;;;;;;;;;;5047288;28;20031;-74
2022/10/22 01:29:27;;;;;;;19.30;8.20;;;;;;;;;;5044362;28;20382;-74
2022/10/22 01:32:06;;;;;;;18.05;8.45;;;;;;;;;;5047738;28;20040;-74
2022/10/22 01:34:33;;;;;;;15.30;8.15;;;;;;;;;;5043696;28;20079;-74
2022/10/22 01:36:59;;;;;;;17.63;9.10;;;;;;;;;;5048931;28;20032;-74
2022/10/22 01:39:26;;;;;;;17.30;9.05;;;;;;;;;;5045856;28;20320;-74
2022/10/22 01:41:54;;;;;;;17.85;8.85;;;;;;;;;;5047256;28;20046;-74
2022/10/22 01:44:28;;;;;;;18.83;9.07;;;;;;;;;;5045418;28;20032;-75
2022/10/22 01:46:59;;;;;;;24.65;11.30;;;;;;;;;;5045750;28;20419;-74
2022/10/22 01:49:38;;;;;;;22.67;11.83;;;;;;;;;;5045978;28;20021;-74
2022/10/22 01:52:23;;;;;;;24.35;11.05;;;;;;;;;;5044374;28;20267;-74
2022/10/22 01:54:59;;;;;;;20.05;9.52;;;;;;;;;;5045317;28;20033;-75
2022/10/22 01:57:25;;;;;;;23.83;9.95;;;;;;;;;;5046621;28;20029;-74
2022/10/22 01:59:59;;;;;;;23.98;10.73;;;;;;;;;;5046229;28;20017;-74
2022/10/22 02:02:28;;;;;;;21.50;9.80;;;;;;;;;;5045105;28;20339;-74
2022/10/22 02:05:04;;;;;;;17.83;8.98;;;;;;;;;;5046374;28;20402;-74
2022/10/22 02:07:34;;;;;;;18.40;9.68;;;;;;;;;;5044514;28;20300;-74
2022/10/22 02:10:00;;;;;;;18.42;9.77;;;;;;;;;;5046300;28;20032;-74
2022/10/22 02:12:27;;;;;;;22.55;9.85;;;;;;;;;;5041836;28;20044;-74
2022/10/22 02:14:54;;;;;;;18.55;10.10;;;;;;;;;;5044685;28;20040;-74
2022/10/22 02:17:21;;;;;;;17.20;9.02;;;;;;;;;;5044795;28;20060;-74
2022/10/22 02:19:52;;;;;;;13.32;8.00;;;;;;;;;;5044572;28;20466;-74
2022/10/22 02:22:18;;;;;;;15.48;8.80;;;;;;;;;;5045592;28;20025;-74
2022/10/22 02:24:44;;;;;;;18.33;9.05;;;;;;;;;;5045572;28;20066;-74
2022/10/22 02:27:19;;;;;;;13.50;8.77;;;;;;;;;;5044427;28;20457;-74
2022/10/22 02:29:54;;;;;;;15.30;9.20;;;;;;;;;;5046202;28;20048;-74
2022/10/22 02:32:22;;;;;;;17.50;8.25;;;;;;;;;;5045834;28;20036;-75
2022/10/22 02:34:49;;;;;;;15.85;8.52;;;;;;;;;;5044358;28;20139;-74
2022/10/22 02:37:16;;;;;;;15.05;8.57;;;;;;;;;;5041728;28;20022;-74
2022/10/22 02:39:42;;;;;;;17.52;8.85;;;;;;;;;;5044681;28;20033;-74
2022/10/22 02:42:10;;;;;;;14.85;7.60;;;;;;;;;;5043615;28;20017;-74
2022/10/22 02:44:36;;;;;;;12.98;7.78;;;;;;;;;;5043967;28;20036;-74
2022/10/22 02:47:03;;;;;;;11.57;7.90;;;;;;;;;;5044888;28;20029;-74
2022/10/22 02:49:29;;;;;;;15.40;8.20;;;;;;;;;;5043446;28;20025;-74
2022/10/22 02:51:55;;;;;;;14.80;7.72;;;;;;;;;;5044866;28;20029;-74
2022/10/22 02:54:21;;;;;;;15.13;8.23;;;;;;;;;;5044479;28;20410;-74
2022/10/22 02:56:47;;;;;;;13.60;8.48;;;;;;;;;;5043341;28;20419;-74
2022/10/22 02:59:13;;;;;;;14.82;8.45;;;;;;;;;;5045295;28;20033;-74
2022/10/22 03:01:39;;;;;;;16.27;8.77;;;;;;;;;;5047474;28;20021;-74
2022/10/22 03:04:05;;;;;;;15.25;8.05;;;;;;;;;;5044149;28;20108;-74
2022/10/22 03:06:32;;;;;;;13.88;8.48;;;;;;;;;;5045111;28;20036;-74
2022/10/22 03:08:58;;;;;;;13.35;8.15;;;;;;;;;;5045671;28;20037;-74
2022/10/22 03:11:24;;;;;;;15.32;8.63;;;;;;;;;;5044490;28;20121;-75
2022/10/22 03:13:50;;;;;;;14.07;8.30;;;;;;;;;;5042855;28;20376;-74
2022/10/22 03:16:16;;;;;;;13.75;8.02;;;;;;;;;;5045920;28;20450;-75
2022/10/22 03:18:42;;;;;;;11.45;7.47;;;;;;;;;;5045409;28;20045;-75
2022/10/22 03:21:08;;;;;;;14.30;8.27;;;;;;;;;;5043940;28;20472;-74
2022/10/22 03:23:34;;;;;;;14.15;7.72;;;;;;;;;;5044578;28;20037;-75
2022/10/22 03:26:01;;;;;;;15.68;7.75;;;;;;;;;;5044403;28;20115;-74
2022/10/22 03:28:27;;;;;;;15.25;8.25;;;;;;;;;;5043658;28;20322;-74
2022/10/22 03:30:53;;;;;;;15.70;8.70;;;;;;;;;;5043205;28;20049;-74
2022/10/22 03:33:19;;;;;;;15.18;8.25;;;;;;;;;;5042719;28;20025;-74
2022/10/22 03:35:46;;;;;;;15.43;8.30;;;;;;;;;;5041850;28;20037;-74
2022/10/22 03:38:12;;;;;;;14.18;8.73;;;;;;;;;;5039701;28;20060;-74
2022/10/22 03:40:39;;;;;;;17.08;9.20;;;;;;;;;;5054955;28;20346;-74
2022/10/22 03:43:05;;;;;;;15.70;8.98;;;;;;;;;;5055304;28;20045;-74
2022/10/22 03:45:31;;;;;;;20.95;10.48;;;;;;;;;;5042986;28;20029;-74
2022/10/22 03:47:58;;;;;;;13.52;9.05;;;;;;;;;;5069492;28;20087;-74
2022/10/22 03:50:24;;;;;;;13.32;8.80;;;;;;;;;;5051750;28;20033;-74
2022/10/22 03:52:50;;;;;;;12.45;8.48;;;;;;;;;;5037466;28;20021;-76
2022/10/22 03:55:16;;;;;;;29.13;8.88;;;;;;;;;;5040375;28;20025;-74
2022/10/22 03:57:42;;;;;;;11.52;7.65;;;;;;;;;;5056554;28;20056;-75
2022/10/22 04:00:08;;;;;;;14.45;8.75;;;;;;;;;;5060520;28;20025;-74
2022/10/22 04:02:34;;;;;;;13.77;7.82;;;;;;;;;;5060471;28;20041;-74
2022/10/22 04:05:00;;;;;;;11.48;7.80;;;;;;;;;;5060361;28;20437;-74
2022/10/22 04:07:26;;;;;;;16.98;8.63;;;;;;;;;;5060238;28;20417;-74
2022/10/22 04:09:52;;;;;;;13.80;9.55;;;;;;;;;;5060326;28;20031;-74
2022/10/22 04:12:18;;;;;;;17.80;8.57;;;;;;;;;;5060381;28;20025;-74
2022/10/22 04:14:44;;;;;;;17.35;8.32;;;;;;;;;;5059984;28;20318;-74
2022/10/22 04:17:10;;;;;;;11.95;7.78;;;;;;;;;;5059883;28;20037;-74
2022/10/22 04:19:36;;;;;;;14.50;9.10;;;;;;;;;;5060131;28;20028;-74
2022/10/22 04:22:02;;;;;;;12.88;8.32;;;;;;;;;;5060237;28;20025;-74
2022/10/22 04:24:30;;;;;;;14.95;8.27;;;;;;;;;;5060231;28;20021;-74
2022/10/22 04:26:56;;;;;;;17.48;8.32;;;;;;;;;;5059957;28;20111;-74
2022/10/22 04:29:22;;;;;;;13.68;8.77;;;;;;;;;;5058965;28;20032;-74
2022/10/22 04:31:49;;;;;;;15.98;7.97;;;;;;;;;;5059848;28;20025;-74
2022/10/22 04:34:15;;;;;;;12.98;8.20;;;;;;;;;;5059788;28;20025;-74
2022/10/22 04:36:41;;;;;;;13.90;8.02;;;;;;;;;;5059857;28;20028;-74
2022/10/22 04:39:07;;;;;;;15.38;8.40;;;;;;;;;;5059730;28;20064;-74
2022/10/22 04:41:34;;;;;;;13.63;8.23;;;;;;;;;;5059689;28;20021;-75
2022/10/22 04:44:00;;;;;;;11.32;7.82;;;;;;;;;;5059923;28;20071;-74
2022/10/22 04:46:28;;;;;;;14.27;9.25;;;;;;;;;;5058692;28;20489;-75
2022/10/22 04:48:54;;;;;;;13.88;8.57;;;;;;;;;;5059478;28;20039;-74
2022/10/22 04:51:20;;;;;;;13.05;8.35;;;;;;;;;;5059315;28;20021;-74
2022/10/22 04:53:47;;;;;;;18.35;8.77;;;;;;;;;;5059642;28;20036;-74
2022/10/22 04:56:20;;;;;;;15.93;9.48;;;;;;;;;;5059567;28;20035;-74
2022/10/22 04:58:50;;;;;;;13.65;7.80;;;;;;;;;;5059298;28;20446;-74
2022/10/22 05:01:18;;;;;;;13.23;9.50;;;;;;;;;;5059594;28;20017;-74
2022/10/22 05:03:44;;;;;;;24.67;10.85;;;;;;;;;;5059255;28;20032;-74
2022/10/22 05:06:11;;;;;;;24.10;11.00;;;;;;;;;;5059370;28;20322;-74
2022/10/22 05:08:37;;;;;;;26.05;13.05;;;;;;;;;;5059183;28;20025;-75
2022/10/22 05:11:10;;;;;;;34.53;13.43;;;;;;;;;;5059032;28;20035;-74
2022/10/22 05:13:36;;;;;;;25.70;11.88;;;;;;;;;;5058289;28;20021;-74
2022/10/22 05:16:02;;;;;;;32.58;13.63;;;;;;;;;;5058775;28;20513;-74
2022/10/22 05:18:28;;;;;;;25.90;12.95;;;;;;;;;;5058972;28;20398;-74
2022/10/22 05:20:54;;;;;;;22.63;12.95;;;;;;;;;;5058899;28;20032;-74
2022/10/22 05:23:20;;;;;;;24.23;13.98;;;;;;;;;;5058857;28;20017;-74
2022/10/22 05:25:46;;;;;;;26.95;15.07;;;;;;;;;;5058976;28;20032;-74
2022/10/22 05:28:12;;;;;;;25.73;12.55;;;;;;;;;;5058063;28;20036;-74
2022/10/22 05:30:38;;;;;;;24.83;13.82;;;;;;;;;;5058796;28;20406;-74
2022/10/22 05:33:04;;;;;;;27.30;12.32;;;;;;;;;;5058645;28;20047;-74
2022/10/22 05:35:30;;;;;;;33.50;15.55;;;;;;;;;;5057520;28;20116;-74
2022/10/22 05:37:56;;;;;;;28.02;13.55;;;;;;;;;;5058772;28;20044;-74
2022/10/22 05:40:22;;;;;;;31.35;13.90;;;;;;;;;;5058428;28;20036;-74
2022/10/22 05:42:48;;;;;;;26.10;13.15;;;;;;;;;;5058619;28;20021;-74
2022/10/22 05:45:14;;;;;;;27.80;13.30;;;;;;;;;;5058422;28;20029;-74
2022/10/22 05:47:40;;;;;;;24.45;11.80;;;;;;;;;;5058444;28;20414;-74
2022/10/22 05:50:06;;;;;;;30.77;16.00;;;;;;;;;;5058243;28;20025;-74
2022/10/22 05:52:33;;;;;;;32.55;18.63;;;;;;;;;;5058365;28;20032;-74
2022/10/22 05:54:59;;;;;;;52.22;24.45;;;;;;;;;;5058337;28;20120;-74
2022/10/22 05:57:25;;;;;;;39.05;19.90;;;;;;;;;;5058177;28;20474;-74
2022/10/22 05:59:51;;;;;;;41.95;18.80;;;;;;;;;;5058267;28;20028;-74
2022/10/22 06:02:17;;;;;;;31.50;15.77;;;;;;;;;;5058114;28;20052;-74
2022/10/22 06:04:43;;;;;;;25.35;15.25;;;;;;;;;;5058232;28;20032;-74
2022/10/22 06:07:10;;;;;;;29.92;14.57;;;;;;;;;;5058271;28;20028;-74
2022/10/22 06:09:36;;;;;;;32.60;14.43;;;;;;;;;;5058181;28;20024;-74
2022/10/22 06:12:02;;;;;;;28.92;14.82;;;;;;;;;;5058086;28;20025;-74
2022/10/22 06:14:31;;;;;;;40.47;15.65;;;;;;;;;;5058038;28;20044;-75
2022/10/22 06:16:58;;;;;;;21.48;12.68;;;;;;;;;;5057479;28;20045;-74
2022/10/22 06:19:25;;;;;;;30.60;13.90;;;;;;;;;;5056779;28;20056;-74
2022/10/22 06:21:52;;;;;;;21.45;13.63;;;;;;;;;;5057146;28;20058;-73
2022/10/22 06:24:18;;;;;;;21.20;12.55;;;;;;;;;;5057825;28;20398;-74
2022/10/22 06:26:44;;;;;;;24.75;13.05;;;;;;;;;;5057725;28;20036;-74
2022/10/22 06:29:11;;;;;;;28.20;14.55;;;;;;;;;;5057771;28;20046;-74
2022/10/22 06:31:37;;;;;;;19.65;12.52;;;;;;;;;;5057534;28;20418;-74
2022/10/22 06:34:04;;;;;;;20.15;12.77;;;;;;;;;;5057664;28;20028;-74
2022/10/22 06:36:30;;;;;;;21.85;12.50;;;;;;;;;;5057404;28;20021;-74
2022/10/22 06:38:56;;;;;;;19.27;11.88;;;;;;;;;;5057400;28;20059;-74
2022/10/22 06:41:22;;;;;;;23.77;12.88;;;;;;;;;;5057579;28;20321;-74
2022/10/22 06:43:48;;;;;;;21.20;12.13;;;;;;;;;;5057386;28;20021;-74
2022/10/22 06:46:16;;;;;;;20.33;12.43;;;;;;;;;;5057233;28;20423;-74
2022/10/22 06:48:42;;;;;;;20.60;11.50;;;;;;;;;;5056268;28;20398;-75
2022/10/22 06:51:09;;;;;;;22.80;12.52;;;;;;;;;;5057133;28;20052;-73
2022/10/22 06:53:36;;;;;;;19.60;11.05;;;;;;;;;;5057238;28;20033;-74
2022/10/22 06:56:08;;;;;;;23.08;11.50;;;;;;;;;;5057061;28;20060;-74
2022/10/22 06:58:35;;;;;;;18.95;11.68;;;;;;;;;;5057242;28;20017;-74
2022/10/22 07:01:02;;;;;;;23.60;13.00;;;;;;;;;;5056035;28;20319;-74
2022/10/22 07:03:28;;;;;;;22.23;13.32;;;;;;;;;;5057233;28;20025;-74
2022/10/22 07:05:54;;;;;;;21.48;11.73;;;;;;;;;;5057079;28;20044;-74
2022/10/22 07:08:20;;;;;;;24.38;12.05;;;;;;;;;;5057210;28;20025;-75
2022/10/22 07:10:46;;;;;;;19.63;11.80;;;;;;;;;;5057080;28;20037;-75
2022/10/22 07:13:12;;;;;;;25.38;13.52;;;;;;;;;;5057161;28;20025;-74
2022/10/22 07:15:38;;;;;;;20.88;12.63;;;;;;;;;;5056782;28;20135;-74
2022/10/22 07:18:04;;;;;;;18.33;11.65;;;;;;;;;;5056970;28;20097;-74
2022/10/22 07:20:30;;;;;;;20.13;11.77;;;;;;;;;;5056224;28;20037;-74
2022/10/22 07:22:56;;;;;;;18.15;11.55;;;;;;;;;;5057135;28;20029;-75
2022/10/22 07:25:22;;;;;;;23.23;14.05;;;;;;;;;;5057019;28;20112;-74
2022/10/22 07:27:48;;;;;;;18.45;10.25;;;;;;;;;;5056720;28;20025;-74
2022/10/22 07:30:14;;;;;;;20.52;11.65;;;;;;;;;;5056872;28;20071;-74
2022/10/22 07:32:41;;;;;;;20.75;12.93;;;;;;;;;;5058500;28;20319;-75
2022/10/22 07:35:07;;;;;;;34.50;20.02;;;;;;;;;;5059783;28;20060;-74
2022/10/22 07:37:33;;;;;;;19.75;12.02;;;;;;;;;;5060512;28;20108;-75
2022/10/22 07:39:59;;;;;;;26.25;14.45;;;;;;;;;;5060977;28;20028;-75
2022/10/22 07:42:25;;;;;;;20.73;10.82;;;;;;;;;;5061009;28;20318;-75
2022/10/22 07:44:51;;;;;;;22.33;11.50;;;;;;;;;;5060798;28;20350;-75
2022/10/22 07:47:17;;;;;;;21.58;12.05;;;;;;;;;;5060652;28;20033;-74
2022/10/22 07:49:43;;;;;;;23.02;11.13;;;;;;;;;;5060738;28;20021;-75
2022/10/22 07:52:09;;;;;;;19.98;11.90;;;;;;;;;;5060666;28;20430;-74
2022/10/22 07:54:35;;;;;;;24.00;12.82;;;;;;;;;;5060583;28;20017;-75
2022/10/22 07:57:01;;;;;;;26.15;13.25;;;;;;;;;;5060220;28;20028;-74
2022/10/22 07:59:27;;;;;;;24.33;13.40;;;;;;;;;;5060459;28;20025;-74
2022/10/22 08:01:53;;;;;;;21.88;11.15;;;;;;;;;;5059345;28;20318;-74
2022/10/22 08:04:19;;;;;;;16.33;10.20;;;;;;;;;;5060395;28;20021;-74
2022/10/22 08:06:45;;;;;;;18.05;10.95;;;;;;;;;;5059372;28;20407;-74
2022/10/22 08:09:11;;;;;;;17.30;10.50;;;;;;;;;;5060263;28;20407;-75
2022/10/22 08:11:37;;;;;;;24.15;11.57;;;;;;;;;;5060244;28;20067;-74
2022/10/22 08:14:04;;;;;;;19.00;10.35;;;;;;;;;;5060268;28;20041;-74
2022/10/22 08:16:30;;;;;;;17.02;11.98;;;;;;;;;;5059864;28;20053;-75
2022/10/22 08:18:56;;;;;;;23.08;11.98;;;;;;;;;;5060143;28;20070;-74
2022/10/22 08:21:22;;;;;;;33.72;21.70;;;;;;;;;;5064148;28;20127;-75
2022/10/22 08:23:48;;;;;;;20.30;10.73;;;;;;;;;;5069472;28;20470;-75
2022/10/22 08:26:14;;;;;;;22.88;10.60;;;;;;;;;;5070483;28;20025;-75
2022/10/22 08:28:40;;;;;;;16.65;10.25;;;;;;;;;;5069774;28;20031;-75
2022/10/22 08:31:07;;;;;;;24.77;10.40;;;;;;;;;;5062509;28;20024;-74
2022/10/22 08:33:35;;;;;;;23.67;12.60;;;;;;;;;;5078115;28;20115;-75
2022/10/22 08:36:03;;;;;;;28.80;14.23;;;;;;;;;;5078579;28;20067;-75
2022/10/22 08:38:30;;;;;;;25.23;12.20;;;;;;;;;;5079909;28;20357;-74
2022/10/22 08:41:11;;;;;;;18.33;10.23;;;;;;;;;;5079875;28;20029;-74
2022/10/22 08:43:37;;;;;;;19.42;11.10;;;;;;;;;;5079140;28;20017;-75
2022/10/22 08:46:12;;;;;;;21.92;10.57;;;;;;;;;;5079520;28;20440;-74
2022/10/22 08:48:45;;;;;;;20.70;11.48;;;;;;;;;;5079679;28;20146;-75
2022/10/22 08:51:12;;;;;;;26.25;12.27;;;;;;;;;;5079338;28;20044;-77
2022/10/22 08:53:44;;;;;;;24.55;11.57;;;;;;;;;;5079552;28;20025;-75
2022/10/22 08:56:10;;;;;;;;;;;;;;;;;;5079751;28;20034;-75
2022/10/22 08:58:36;;;;;;;35.40;15.07;;;;;;;;;;5079420;28;19904;-76
2022/10/22 09:01:13;;;;;;;19.38;11.10;;;;;;;;;;5078312;28;20032;-75
2022/10/22 09:03:46;;;;;;;22.30;11.43;;;;;;;;;;5079284;28;20028;-74
2022/10/22 09:06:20;;;;;;;23.00;11.25;;;;;;;;;;5078080;28;20407;-75
2022/10/22 09:08:46;;;;;;;23.05;10.80;;;;;;;;;;5079336;28;20024;-75
2022/10/22 09:11:12;;;;;;;31.92;13.88;;;;;;;;;;5079137;28;20074;-74
2022/10/22 09:13:40;;;;;;;34.05;14.82;;;;;;;;;;5078993;28;20033;-76
2022/10/22 09:16:17;;;;;;;28.90;12.48;;;;;;;;;;5078758;28;20090;-75
2022/10/22 09:19:02;;;;;;;28.45;13.20;;;;;;;;;;5076064;28;20028;-75
2022/10/22 09:21:33;;;;;;;23.55;10.38;;;;;;;;;;5052336;28;20307;-75
2022/10/22 09:23:59;;;;;;;;;;;;;;;;;;5059250;28;20039;-75
2022/10/22 09:26:26;;;;;;;21.48;11.32;;;;;;;;;;5058809;28;20290;-75
2022/10/22 09:28:52;;;;;;;24.08;11.77;;;;;;;;;;5058902;28;20115;-75
2022/10/22 09:31:19;;;;;;;25.52;12.80;;;;;;;;;;5058805;28;20017;-75
2022/10/22 09:33:47;;;;;;;20.30;10.82;;;;;;;;;;5058663;28;20029;-75
2022/10/22 09:36:18;;;;;;;28.45;11.93;;;;;;;;;;5058426;28;20021;-75
2022/10/22 09:38:46;;;;;;;28.75;10.88;;;;;;;;;;5058260;28;20429;-75
2022/10/22 09:41:12;;;;;;;19.60;10.13;;;;;;;;;;5058774;28;20017;-75
2022/10/22 09:43:38;;;;;;;19.70;10.07;;;;;;;;;;5058666;28;20017;-75
2022/10/22 09:46:05;;;;;;;25.60;11.48;;;;;;;;;;5058427;28;20036;-75
2022/10/22 09:48:36;;;;;;;32.90;12.10;;;;;;;;;;5058337;28;20025;-75
2022/10/22 09:51:12;;;;;;;23.48;10.73;;;;;;;;;;5058136;28;20032;-75
2022/10/22 09:53:41;;;;;;;26.48;13.40;;;;;;;;;;5058364;28;20432;-75
2022/10/22 09:56:10;;;;;;;25.58;10.48;;;;;;;;;;5057239;28;20033;-75
2022/10/22 09:58:48;;;;;;;19.52;10.65;;;;;;;;;;5058317;28;20024;-75
2022/10/22 10:01:25;;;;;;;33.13;12.30;;;;;;;;;;5058259;28;20024;-75
2022/10/22 10:03:51;;;;;;;31.83;14.10;;;;;;;;;;5058107;28;20318;-75
2022/10/22 10:06:22;;;;;;;28.55;11.73;;;;;;;;;;5057694;28;20039;-75
2022/10/22 10:08:48;;;;;;;31.73;13.02;;;;;;;;;;5057901;28;20029;-75
2022/10/22 10:11:27;;;;;;;25.63;11.52;;;;;;;;;;5058267;28;20048;-75
2022/10/22 10:14:00;;;;;;;24.58;11.07;;;;;;;;;;5058192;28;20142;-75
2022/10/22 10:16:32;;;;;;;22.05;11.10;;;;;;;;;;5057566;28;20049;-75
2022/10/22 10:19:01;;;;;;;33.45;15.48;;;;;;;;;;5056760;28;20021;-75
2022/10/22 10:21:36;;;;;;;46.45;22.65;;;;;;;;;;5056652;28;20060;-75
2022/10/22 10:24:08;;;;;;;57.15;25.67;;;;;;;;;;5057860;28;20116;-75
2022/10/22 10:26:34;;;;;;;;;;;;;;;;;;5057064;28;20029;-75
2022/10/22 10:29:20;;;;;;;47.75;22.23;;;;;;;;;;5056846;28;20352;-75
2022/10/22 10:31:46;;;;;;;36.22;20.02;;;;;;;;;;5057754;28;20104;-75
2022/10/22 10:34:18;;;;;;;30.52;14.65;;;;;;;;;;5057528;28;20371;-75
2022/10/22 10:37:05;;;;;;;26.48;13.98;;;;;;;;;;5056362;28;20036;-74
2022/10/22 10:39:43;;;;;;;28.92;14.85;;;;;;;;;;5057135;28;20287;-75
2022/10/22 10:42:21;;;;;;;29.85;14.13;;;;;;;;;;5057453;28;20025;-75
2022/10/22 10:44:56;;;;;;;26.48;13.63;;;;;;;;;;5056521;28;20090;-75
2022/10/22 10:47:28;;;;;;;24.60;13.05;;;;;;;;;;5056522;28;20021;-75
2022/10/22 10:49:57;;;;;;;31.70;12.75;;;;;;;;;;5056128;28;20288;-74
2022/10/22 10:52:23;;;;;;;30.98;13.25;;;;;;;;;;5057202;28;20032;-74
2022/10/22 10:55:04;;;;;;;27.70;12.75;;;;;;;;;;5057458;28;20017;-75
2022/10/22 10:57:46;;;;;;;29.38;13.30;;;;;;;;;;5057262;28;20080;-75
2022/10/22 11:00:18;;;;;;;24.33;12.63;;;;;;;;;;5057131;28;20032;-74
2022/10/22 11:02:55;;;;;;;25.70;11.57;;;;;;;;;;5057114;28;20021;-74
2022/10/22 11:05:24;;;;;;;29.52;13.48;;;;;;;;;;5057311;28;20063;-74
2022/10/22 11:08:02;;;;;;;29.55;17.55;;;;;;;;;;5056628;28;20433;-75
2022/10/22 11:10:31;;;;;;;25.70;12.77;;;;;;;;;;5057153;28;20028;-74
2022/10/22 11:13:02;;;;;;;29.40;13.90;;;;;;;;;;5057110;28;20024;-75
2022/10/22 11:15:31;;;;;;;25.10;11.90;;;;;;;;;;5056817;28;20071;-74
2022/10/22 11:18:01;;;;;;;26.55;12.20;;;;;;;;;;5039414;28;20041;-74
2022/10/22 11:20:32;;;;;;;29.33;12.77;;;;;;;;;;5056817;28;20441;-76
2022/10/22 11:23:04;;;;;;;30.08;14.65;;;;;;;;;;5056945;28;20029;-79
2022/10/22 11:25:34;;;;;;;30.48;14.50;;;;;;;;;;5056007;28;20052;-72
2022/10/22 11:28:07;;;;;;;45.83;20.67;;;;;;;;;;5056821;28;20071;-74
2022/10/22 11:30:35;;;;;;;55.72;17.33;;;;;;;;;;5056155;28;20073;-75
2022/10/22 11:33:03;;;;;;;46.10;15.68;;;;;;;;;;5056972;28;20029;-75
2022/10/22 11:35:34;;;;;;;30.67;14.45;;;;;;;;;;5055771;28;20075;-81
2022/10/22 11:38:02;;;;;;;27.88;12.05;;;;;;;;;;5056733;28;20548;-83
2022/10/22 11:40:28;;;;;;;34.00;14.60;;;;;;;;;;5055912;28;20025;-82
2022/10/22 11:42:56;;;;;;;50.83;14.88;;;;;;;;;;5057081;28;20029;-77
2022/10/22 11:45:22;;;;;;;29.35;14.57;;;;;;;;;;5056857;28;20036;-76
2022/10/22 11:48:14;;;;;;;29.02;14.85;;;;;;;;;;5056983;28;20017;-76
2022/10/22 11:50:43;;;;;;;28.35;14.95;;;;;;;;;;5056618;28;20025;-77
2022/10/22 11:53:12;;;;;;;27.30;14.57;;;;;;;;;;5056498;28;20414;-76
2022/10/22 11:55:54;;;;;;;20.38;12.23;;;;;;;;;;5056832;28;20029;-77
2022/10/22 11:58:38;;;;;;;22.15;12.73;;;;;;;;;;5056903;28;20315;-77
2022/10/22 12:01:07;;;;;;;34.45;15.80;;;;;;;;;;5056898;28;20029;-76
2022/10/22 12:03:38;;;;;;;36.90;16.50;;;;;;;;;;5056618;28;20053;-76
2022/10/22 12:06:04;;;;;;;26.30;13.45;;;;;;;;;;5056382;28;20021;-76
2022/10/22 12:08:32;;;;;;;24.73;13.82;;;;;;;;;;5055589;28;20028;-76
2022/10/22 12:11:02;;;;;;;29.38;13.68;;;;;;;;;;5056695;28;20056;-77
2022/10/22 12:13:30;;;;;;;45.85;17.83;;;;;;;;;;5056652;28;20025;-76
2022/10/22 12:16:02;;;;;;;28.63;14.90;;;;;;;;;;5056288;28;20060;-77
2022/10/22 12:18:54;;;;;;;25.65;11.00;;;;;;;;;;5055654;28;20029;-76
2022/10/22 12:21:23;;;;;;;25.35;13.05;;;;;;;;;;5055838;28;20033;-77
2022/10/22 12:23:50;;;;;;;34.75;14.32;;;;;;;;;;5060073;28;20017;-76
2022/10/22 12:26:27;;;;;;;33.17;17.63;;;;;;;;;;5060014;28;20029;-75
2022/10/22 12:28:59;;;;;;;33.22;14.75;;;;;;;;;;5059974;28;20025;-76
2022/10/22 12:31:25;;;;;;;32.65;14.63;;;;;;;;;;5060350;28;20025;-76
2022/10/22 12:33:55;;;;;;;38.55;14.38;;;;;;;;;;5059844;28;20025;-76
2022/10/22 12:36:21;;;;;;;40.72;14.90;;;;;;;;;;5060039;28;20314;-76
2022/10/22 12:38:47;;;;;;;40.35;14.73;;;;;;;;;;5059566;28;20430;-76
2022/10/22 12:41:14;;;;;;;27.25;13.13;;;;;;;;;;5059875;28;20048;-77
2022/10/22 12:43:40;;;;;;;28.88;13.38;;;;;;;;;;5058686;28;20046;-76
2022/10/22 12:46:12;;;;;;;70.93;43.75;;;;;;;;;;5059280;28;20056;-77
2022/10/22 12:48:39;;;;;;;31.38;13.90;;;;;;;;;;5059880;28;20051;-77
2022/10/22 12:51:07;;;;;;;31.67;12.48;;;;;;;;;;5059416;28;20296;-77
2022/10/22 12:53:38;;;;;;;24.92;11.07;;;;;;;;;;5059668;28;20021;-77
2022/10/22 12:56:10;;;;;;;148.00;93.75;;;;;;;;;;5059440;28;20029;-77
2022/10/22 12:58:45;;;;;;;55.05;32.63;;;;;;;;;;5059596;28;20116;-77
2022/10/22 13:01:11;;;;;;;43.75;27.05;;;;;;;;;;5059230;28;20121;-76
2022/10/22 13:03:45;;;;;;;266.38;171.88;;;;;;;;;;5059468;28;20029;-76
2022/10/22 13:06:22;;;;;;;31.42;18.05;;;;;;;;;;5059397;28;20110;-76
2022/10/22 13:09:14;;;;;;;34.20;19.83;;;;;;;;;;5059177;28;20025;-77
2022/10/22 13:11:42;;;;;;;130.88;98.13;;;;;;;;;;5057225;28;20047;-77
2022/10/22 13:14:27;;;;;;;88.97;61.22;;;;;;;;;;5059224;28;20100;-78
2022/10/22 13:17:13;;;;;;;202.55;143.88;;;;;;;;;;5058979;28;20053;-77
2022/10/22 13:19:45;;;;;;;112.85;78.97;;;;;;;;;;5059019;28;20029;-76
2022/10/22 13:22:23;;;;;;;89.80;59.05;;;;;;;;;;5057884;28;20021;-76
2022/10/22 13:24:50;;;;;;;46.30;23.05;;;;;;;;;;5059034;28;20100;-77
2022/10/22 13:27:16;;;;;;;42.03;20.38;;;;;;;;;;5058695;28;20025;-78
2022/10/22 13:29:42;;;;;;;39.95;17.88;;;;;;;;;;5058607;28;20438;-77
2022/10/22 13:32:26;;;;;;;144.02;96.90;;;;;;;;;;5059063;28;20299;-77
2022/10/22 13:34:52;;;;;;;352.95;292.17;;;;;;;;;;5058902;28;20036;-77
2022/10/22 13:37:18;;;;;;;295.50;217.98;;;;;;;;;;5058696;28;20025;-77
2022/10/22 13:39:45;;;;;;;264.55;191.20;;;;;;;;;;5058966;28;20025;-77
2022/10/22 13:42:11;;;;;;;114.97;71.45;;;;;;;;;;5058589;28;20314;-77
2022/10/22 13:44:39;;;;;;;107.10;68.55;;;;;;;;;;5057500;28;20029;-78
2022/10/22 13:47:10;;;;;;;66.22;30.08;;;;;;;;;;5058476;28;20556;-78
2022/10/22 13:49:39;;;;;;;146.70;98.78;;;;;;;;;;5058480;28;20047;-81
2022/10/22 13:52:05;;;;;;;212.07;152.88;;;;;;;;;;5055213;28;20037;-76
2022/10/22 13:54:31;;;;;;;204.00;143.52;;;;;;;;;;5056239;28;20051;-76
2022/10/22 13:56:57;;;;;;;80.93;48.50;;;;;;;;;;5061694;28;20027;-76
